Delta Virtual Airport Information Service

Halifax Stanfield International Airport

ICAO: CYHZ Country: Canada
Latitude: 44.8808 Longitude: -63.5086
Latest Arrival : DAC420 (KORD-CYHZ) Latest Departure : DAC918 (CYHZ-PAFA)


WX CaptureLIVE
Data provided by noaa.gov | Fetched at 08:33:58

METAR : CYHZ 061400Z 29011G17KT 15SM -SN BKN022 M08/M12 A2974 RMK SC7 SLP081

TAF : CYHZ 061307Z 0613/0712 25012KT P6SM BKN030 TEMPO 0613/0615 6SM -SN BKN020 FM061500 26012G22KT P6SM BKN030 TEMPO 0619/0621 SCT030 FM062100 26012KT P6SM FEW030 FM070400 22010KT P6SM BKN020 RMK NXT FCST BY 061500Z


Runway Data for CYHZ
Data provided by openaviationdata.com

Runway ID Mag Var Hdg Length Elevation Surface ILS Freq ILS Id ILS Slope
6 -19 54° 8797 ft 477 ft Concrete 109.9 IGX 0
15 -19 144° 7698 ft 477 ft Asphalt 109.1 IHZ 3
24 -19 234° 8797 ft 477 ft Concrete 109.9 IJG 2
33 -19 324° 7698 ft 477 ft Asphalt -- -- --

Halifax Stanfield International Airport, Canada
Use only for reference purposes



Not for navigational purposes.